LavenderCAM.net
Leatherhead Weather
 
Leatherhead Weather
 
 





Aviation weather for

London Heathrow (EGLL) and London Gatwick (EGKK)



London Heathrow (EGLL) METAR / Surface Actual
London / Heathrow Airport, United Kingdom (EGLL) 51-29N 000-27W 0M
Jun 17, 2024 - 11:20 AM EDT / 2024.06.17 1520 UTC
Wind: from the WSW (250 degrees) at 10 MPH (9 KT) (direction variable):0
Visibility: greater than 7 mile(s):0
Temperature: 69 F (21 C)
Dew Point: 44 F (7 C)
Relative Humidity: 40%
Pressure (altimeter): 29.85 in. Hg (1011 hPa)
ob: EGLL 171520Z AUTO 25009KT 210V290 9999 NCD 21/07 Q1011 NOSIG
cycle: 15
London Heathrow (EGLL) TAF / Forecast
2024/06/17 12:09
TAF EGLL 171052Z 1712/1818 24010KT 9999 FEW040 
      BECMG 1723/1802 33004KT 
      BECMG 1806/1809 03010KT


London Gatwick (EGKK) METAR / Surface Actual
London / Gatwick Airport, United Kingdom (EGKK) 51-09N 000-11W 0M
Jun 17, 2024 - 11:20 AM EDT / 2024.06.17 1520 UTC
Wind: from the SSW (210 degrees) at 8 MPH (7 KT) (direction variable):0
Visibility: greater than 7 mile(s):0
Sky conditions: mostly clear
Temperature: 66 F (19 C)
Dew Point: 50 F (10 C)
Relative Humidity: 55%
Pressure (altimeter): 29.85 in. Hg (1011 hPa)
ob: EGKK 171520Z 21007KT 170V250 9999 FEW039 19/10 Q1011
cycle: 15
London Gatwick (EGKK) TAF / Forecast
2024/06/17 12:09
TAF EGKK 171052Z 1712/1818 22009KT 9999 FEW040 PROB30 1801/1806 6000 
      BECMG 1806/1809 02010KT 
      TEMPO 1809/1813 6000 RA